Lum, Michigan
Current Conditions -  °F | °C
As of 11:54 AM on Saturday 22 Nov 2014 (Local Time) from KD95 Reporting Station
Overcast Overcast  
Wind Chill: 29°   Ceiling: 1000
Heat Index: 38°   Visibility: 7mi
Dew Point: 35°   Wind: 15mph
Humidity: 89%   Direction: 240°WSW
Pressure: 29.97"   Gusts: 20mph
Location:  43.0581°N, 83.167°W
Report Text: KD95 221654Z AUTO 24013G17KT 7SM OVC010 03/02 A2997 RMK AO2 T00310015
Loading
Personal Weather Stations






























Interactive Weather Map New forecast layout! Learn more

10-Day Weather Forecast

Advertisements
Track Severe Weather on mobile